Time;durP1;ratioP1;P1;durP2;ratioP2;P2;SDS_P1;SDS_P2;PMS_P1;PMS_P2;Temp;Humidity;BMP_temperature;BMP_pressure;BME280_temperature;BME280_humidity;BME280_pressure;Samples;Min_cycle;Max_cycle;Signal;HPM_P1;HPM_P2
2023/01/17 00:00:05;;;;;;;2.47;1.23;;;;;;;5.03;100.00;97790.94;5028434;28;20337;-73
2023/01/17 00:02:31;;;;;;;2.33;1.27;;;;;;;5.01;100.00;97790.94;5030693;28;20315;-73
2023/01/17 00:10:27;;;;;;;3.37;1.50;;;;;;;5.04;100.00;97777.41;5029768;28;20200;-73
2023/01/17 00:12:53;;;;;;;2.60;1.40;;;;;;;5.05;100.00;97766.41;5020207;28;20207;-72
2023/01/17 00:15:21;;;;;;;2.93;1.30;;;;;;;5.06;100.00;97776.53;5024940;28;20580;-71
2023/01/17 00:17:47;;;;;;;2.80;1.13;;;;;;;5.08;100.00;97766.38;5026329;28;20183;-72
2023/01/17 01:35:09;;;;;;;1.60;1.50;;;;;;;4.59;100.00;97755.81;5020397;28;20245;-72
2023/01/17 01:37:35;;;;;;;2.07;1.30;;;;;;;4.60;100.00;97756.66;5026620;28;20223;-73
2023/01/17 01:40:00;;;;;;;1.97;1.40;;;;;;;4.59;100.00;97755.81;5028613;28;20194;-73
2023/01/17 01:42:25;;;;;;;3.30;1.40;;;;;;;4.57;100.00;97760.06;5020874;28;20275;-73
2023/01/17 01:44:52;;;;;;;2.33;1.30;;;;;;;4.59;100.00;97755.81;5022742;28;20650;-72
2023/01/17 01:47:35;;;;;;;1.73;1.40;;;;;;;4.59;100.00;97753.25;5027226;28;20190;-73
2023/01/17 01:50:06;;;;;;;1.57;1.30;;;;;;;4.59;100.00;97753.25;5024982;28;20202;-73
2023/01/17 01:52:34;;;;;;;2.30;1.40;;;;;;;4.58;100.00;97751.59;5022915;28;20210;-72
2023/01/17 01:55:14;;;;;;;2.00;1.57;;;;;;;4.55;100.00;97760.91;5020041;28;20198;-74
2023/01/17 01:57:42;;;;;;;4.03;1.60;;;;;;;4.55;100.00;97751.59;5020980;28;20193;-72
2023/01/17 02:00:29;;;;;;;3.03;1.47;;;;;;;4.51;100.00;97754.19;5021891;28;20194;-73
2023/01/17 02:02:58;;;;;;;2.40;1.60;;;;;;;4.48;100.00;97759.25;5019680;28;20760;-73
2023/01/17 02:05:26;;;;;;;1.77;1.47;;;;;;;4.51;100.00;97757.53;5025858;28;20198;-73
2023/01/17 02:08:03;;;;;;;2.30;1.90;;;;;;;4.51;100.00;97754.19;5021681;28;20194;-74
2023/01/17 02:10:37;;;;;;;2.17;1.70;;;;;;;4.51;100.00;97764.31;5022968;28;20202;-73
2023/01/17 02:13:04;;;;;;;2.13;1.90;;;;;;;4.44;100.00;97766.03;5025661;28;20578;-73
2023/01/17 02:15:47;;;;;;;2.43;2.23;;;;;;;4.42;100.00;97757.59;5022452;28;20202;-73
2023/01/17 02:18:54;;;;;;;2.93;2.30;;;;;;;4.44;100.00;97760.97;5026010;28;20194;-74
2023/01/17 02:21:21;;;;;;;2.67;2.37;;;;;;;4.40;100.00;97759.31;5022171;28;20209;-73
2023/01/17 02:24:35;;;;;;;4.00;2.77;;;;;;;4.38;100.00;97755.09;5027005;28;20309;-73
2023/01/17 02:27:13;;;;;;;3.47;2.70;;;;;;;4.35;100.00;97750.91;5025243;28;20230;-74
2023/01/17 02:30:13;;;;;;;4.33;3.27;;;;;;;4.29;100.00;97745.88;5021276;28;20539;-71
2023/01/17 02:33:06;;;;;;;4.07;3.23;;;;;;;4.27;100.00;97746.72;5024381;28;20213;-73
2023/01/17 02:35:47;;;;;;;4.20;3.80;;;;;;;4.24;100.00;97741.69;5020648;28;20198;-73
2023/01/17 02:38:30;;;;;;;4.50;4.00;;;;;;;4.27;100.00;97741.66;5022292;28;20249;-73
2023/01/17 02:41:01;;;;;;;4.30;3.77;;;;;;;4.24;100.00;97734.09;5023472;28;20195;-72
2023/01/17 02:43:27;;;;;;;4.33;3.93;;;;;;;4.26;100.00;97740.84;5021538;28;20226;-74
2023/01/17 02:45:53;;;;;;;4.70;4.20;;;;;;;4.23;100.00;97738.31;5022804;28;20252;-73
2023/01/17 02:48:23;;;;;;;5.27;4.47;;;;;;;4.25;100.00;97745.91;5021138;28;20194;-73
2023/01/17 02:50:57;;;;;;;6.10;4.60;;;;;;;4.24;100.00;97742.50;5022673;28;20222;-73
2023/01/17 02:53:29;;;;;;;5.20;4.50;;;;;;;4.25;100.00;97746.75;5006885;28;20212;-73
2023/01/17 02:56:32;;;;;;;4.73;4.13;;;;;;;4.21;100.00;97750.16;5022914;28;20818;-73
2023/01/17 02:59:10;;;;;;;4.40;4.00;;;;;;;4.23;100.00;97745.91;5018950;28;20195;-73
2023/01/17 03:02:00;;;;;;;5.57;5.00;;;;;;;4.24;100.00;97750.13;5016734;28;20580;-74
2023/01/17 03:04:47;;;;;;;5.67;5.03;;;;;;;4.25;100.00;97745.91;5025817;28;20206;-74
2023/01/17 03:07:19;;;;;;;7.43;5.43;;;;;;;4.23;100.00;97750.97;5019809;28;20190;-72
2023/01/17 03:09:49;;;;;;;6.23;5.30;;;;;;;4.26;100.00;97747.56;5024413;28;20672;-73
2023/01/17 03:12:14;;;;;;;7.40;6.43;;;;;;;4.26;100.00;97753.50;5020572;28;20214;-73
2023/01/17 03:14:40;;;;;;;6.93;5.93;;;;;;;4.25;100.00;97753.50;5021584;28;20285;-73
2023/01/17 03:17:06;;;;;;;8.67;6.60;;;;;;;4.23;100.00;97756.03;5027163;28;20248;-72
2023/01/17 03:19:31;;;;;;;8.30;7.23;;;;;;;4.28;100.00;97758.56;5030504;28;20253;-73
2023/01/17 03:21:57;;;;;;;9.03;7.93;;;;;;;4.26;100.00;97750.97;5030223;28;20229;-72
2023/01/17 03:24:22;;;;;;;11.57;9.23;;;;;;;4.27;100.00;97756.84;5023559;28;20226;-73
2023/01/17 03:26:48;;;;;;;10.17;8.83;;;;;;;4.29;100.00;97762.75;5028454;28;20209;-73
2023/01/17 03:29:15;;;;;;;11.90;9.80;;;;;;;4.28;100.00;97766.97;5025285;28;20193;-73
2023/01/17 03:31:40;;;;;;;12.30;9.23;;;;;;;4.27;100.00;97757.69;5023935;28;20236;-73
2023/01/17 03:34:06;;;;;;;12.67;9.53;;;;;;;4.28;100.00;97753.50;5025021;28;20632;-73
2023/01/17 03:36:31;;;;;;;10.97;8.80;;;;;;;4.25;100.00;97763.63;5028466;28;20819;-72
2023/01/17 03:38:57;;;;;;;9.83;7.77;;;;;;;4.24;100.00;97760.25;5021851;28;20201;-73
2023/01/17 03:41:22;;;;;;;10.20;8.00;;;;;;;4.26;100.00;97763.63;5024795;28;20252;-74
2023/01/17 03:43:48;;;;;;;9.70;8.10;;;;;;;4.27;100.00;97760.22;5022037;28;20246;-74
2023/01/17 03:46:22;;;;;;;8.77;7.03;;;;;;;4.25;100.00;97756.88;5028890;28;20248;-72
2023/01/17 03:48:48;;;;;;;9.03;7.17;;;;;;;4.26;100.00;97760.25;5024808;28;20195;-72
2023/01/17 03:51:14;;;;;;;10.47;7.47;;;;;;;4.25;100.00;97763.63;5028799;28;20681;-72
2023/01/17 03:53:39;;;;;;;8.40;6.10;;;;;;;4.25;100.00;97763.63;5024782;28;20813;-72
2023/01/17 03:56:05;;;;;;;9.63;6.87;;;;;;;4.26;100.00;97766.16;5022956;28;20705;-74
2023/01/17 03:58:30;;;;;;;10.07;6.77;;;;;;;4.30;100.00;97769.50;5022606;28;20202;-74
2023/01/17 04:00:56;;;;;;;10.60;7.00;;;;;;;4.27;100.00;97770.38;5023522;28;20208;-72
2023/01/17 04:03:21;;;;;;;9.13;7.23;;;;;;;4.26;100.00;97762.78;5026216;28;20218;-74
2023/01/17 04:05:47;;;;;;;10.23;8.37;;;;;;;4.28;100.00;97773.75;5021639;28;20286;-73
2023/01/17 04:08:12;;;;;;;10.03;7.57;;;;;;;4.28;100.00;97776.28;5024690;28;20198;-72
2023/01/17 04:10:38;;;;;;;8.10;6.57;;;;;;;4.26;100.00;97771.22;5016670;28;20261;-73
2023/01/17 04:13:03;;;;;;;8.00;6.67;;;;;;;4.28;100.00;97777.09;5023978;28;20214;-73
2023/01/17 04:15:28;;;;;;;9.27;6.83;;;;;;;4.28;100.00;97773.75;5023562;28;20309;-72
2023/01/17 04:17:54;;;;;;;7.70;6.17;;;;;;;4.23;100.00;97788.94;5028367;28;20229;-73
2023/01/17 04:20:35;;;;;;;8.60;6.50;;;;;;;4.23;100.00;97794.00;5023356;28;20281;-73
2023/01/17 04:23:01;;;;;;;8.70;6.57;;;;;;;4.18;100.00;97794.91;5026768;28;20230;-72
2023/01/17 04:25:28;;;;;;;8.50;6.23;;;;;;;4.15;100.00;97792.38;5026503;28;20608;-72
2023/01/17 04:27:54;;;;;;;7.40;5.53;;;;;;;4.15;100.00;97794.91;5025639;28;20206;-73
2023/01/17 04:30:20;;;;;;;7.77;5.97;;;;;;;4.13;100.00;97799.97;5029012;28;20245;-72
2023/01/17 04:32:45;;;;;;;9.83;6.50;;;;;;;4.14;100.00;97805.88;5020881;28;20221;-73
2023/01/17 04:35:11;;;;;;;9.10;6.10;;;;;;;4.10;100.00;97806.75;5021707;28;20293;-73
2023/01/17 04:37:36;;;;;;;8.30;5.50;;;;;;;4.03;100.00;97802.53;5023327;28;20278;-74
2023/01/17 04:40:03;;;;;;;7.70;5.53;;;;;;;4.02;100.00;97808.47;5028455;28;20182;-74
2023/01/17 04:42:29;;;;;;;8.50;5.83;;;;;;;3.97;100.00;97805.13;5022150;28;20275;-74
2023/01/17 04:44:54;;;;;;;8.53;5.73;;;;;;;3.98;100.00;97806.78;5023485;28;20222;-73
2023/01/17 04:47:20;;;;;;;8.87;6.23;;;;;;;3.95;100.00;97809.34;5026072;28;20351;-74
2023/01/17 04:49:45;;;;;;;9.37;7.13;;;;;;;3.93;100.00;97814.41;5021465;28;20199;-74
2023/01/17 04:52:11;;;;;;;8.70;5.97;;;;;;;3.94;100.00;97820.28;5024069;28;20225;-74
2023/01/17 04:54:36;;;;;;;8.87;6.27;;;;;;;3.92;100.00;97816.94;5002025;28;20187;-73
2023/01/17 04:57:02;;;;;;;9.87;6.60;;;;;;;3.88;100.00;97821.19;5004192;28;20566;-73
2023/01/17 04:59:27;;;;;;;10.17;6.57;;;;;;;3.88;100.00;97821.19;5021609;28;20713;-73
2023/01/17 05:01:53;;;;;;;7.90;5.47;;;;;;;3.88;100.00;97817.78;5020217;28;20216;-74
2023/01/17 05:04:18;;;;;;;7.50;5.50;;;;;;;3.87;100.00;97823.72;5020843;28;20659;-73
2023/01/17 05:06:44;;;;;;;8.50;5.90;;;;;;;3.86;100.00;97817.78;5018083;28;20297;-74
2023/01/17 05:09:10;;;;;;;10.10;6.70;;;;;;;3.86;100.00;97816.97;5022138;28;20195;-73
2023/01/17 05:11:35;;;;;;;9.47;6.40;;;;;;;3.86;100.00;97820.31;5025474;28;20206;-73
2023/01/17 05:14:01;;;;;;;9.70;6.10;;;;;;;3.86;100.00;97825.38;5019223;28;20183;-72
2023/01/17 05:16:26;;;;;;;9.67;6.27;;;;;;;3.88;100.00;97827.91;5021541;28;20225;-73
2023/01/17 05:18:52;;;;;;;9.80;5.83;;;;;;;3.90;100.00;97833.81;5018402;28;20210;-73
2023/01/17 05:21:19;;;;;;;10.37;5.97;;;;;;;3.90;100.00;97838.88;5019907;28;20183;-74
2023/01/17 05:23:44;;;;;;;11.83;6.57;;;;;;;3.89;100.00;97835.50;5021338;28;20210;-73
2023/01/17 05:26:10;;;;;;;9.40;6.67;;;;;;;3.91;100.00;97832.97;5020399;28;20544;-72
2023/01/17 05:28:35;;;;;;;10.07;6.60;;;;;;;3.93;100.00;97842.25;5026040;28;20198;-72
2023/01/17 05:31:01;;;;;;;11.03;7.20;;;;;;;3.94;100.00;97848.13;5023009;28;20268;-74
2023/01/17 05:33:26;;;;;;;8.97;6.33;;;;;;;3.94;100.00;97846.47;5008042;28;20249;-73
2023/01/17 05:35:52;;;;;;;9.07;6.17;;;;;;;3.94;100.00;97846.47;5019331;28;20195;-71
2023/01/17 05:38:17;;;;;;;9.03;6.07;;;;;;;3.96;100.00;97851.53;5025659;28;20225;-73
2023/01/17 05:40:43;;;;;;;7.13;5.23;;;;;;;3.96;100.00;97849.81;5020408;28;20195;-73
2023/01/17 05:43:08;;;;;;;8.50;6.20;;;;;;;3.95;100.00;97850.66;5022800;28;20736;-72
2023/01/17 05:45:34;;;;;;;7.27;5.13;;;;;;;3.96;100.00;97861.66;5020031;28;20721;-72
2023/01/17 05:48:00;;;;;;;7.67;5.33;;;;;;;3.96;100.00;97864.19;5019725;28;20233;-73
2023/01/17 05:50:29;;;;;;;7.80;5.30;;;;;;;3.96;100.00;97872.59;5024102;28;20553;-73
2023/01/17 05:53:08;;;;;;;7.20;5.20;;;;;;;3.94;100.00;97869.25;5021294;28;20731;-73
2023/01/17 05:55:35;;;;;;;5.70;4.33;;;;;;;3.95;100.00;97875.16;5022092;28;20196;-72
2023/01/17 05:58:01;;;;;;;5.23;3.93;;;;;;;3.94;100.00;97878.50;5030878;28;20604;-72
2023/01/17 06:00:26;;;;;;;5.83;4.43;;;;;;;3.95;100.00;97875.16;5028184;28;20202;-73
2023/01/17 06:02:58;;;;;;;5.73;4.07;;;;;;;3.95;100.00;97892.88;5026213;28;20214;-73
2023/01/17 06:05:24;;;;;;;4.00;3.60;;;;;;;3.94;100.00;97896.22;5025127;28;20230;-72
2023/01/17 06:07:50;;;;;;;5.27;3.37;;;;;;;3.94;100.00;97891.16;5025227;28;20643;-72
2023/01/17 06:10:17;;;;;;;3.63;3.03;;;;;;;3.94;100.00;97903.81;5021751;28;20205;-72
2023/01/17 06:12:44;;;;;;;2.70;2.33;;;;;;;3.93;100.00;97900.47;5023474;28;20685;-72
2023/01/17 06:15:10;;;;;;;2.27;2.00;;;;;;;3.95;100.00;97897.94;5023227;28;20687;-73
2023/01/17 06:17:36;;;;;;;2.60;1.20;;;;;;;3.97;100.00;97897.06;5025441;28;20563;-72
2023/01/17 06:20:03;;;;;;;1.40;1.00;;;;;;;3.99;100.00;97913.09;5023404;28;20194;-72
2023/01/17 06:22:29;;;;;;;1.00;0.90;;;;;;;4.02;100.00;97912.22;5022820;28;20218;-71
2023/01/17 06:24:54;;;;;;;3.67;1.27;;;;;;;4.05;100.00;97947.69;5004551;28;20242;-71
2023/01/17 06:27:20;;;;;;;0.80;0.60;;;;;;;4.02;100.00;97932.47;5023012;28;20205;-72
2023/01/17 06:29:46;;;;;;;0.70;0.50;;;;;;;3.99;100.00;97943.47;5017637;28;20289;-73
2023/01/17 06:32:12;;;;;;;1.10;0.40;;;;;;;4.00;100.00;97952.72;5024367;28;20210;-72
2023/01/17 06:34:39;;;;;;;2.43;0.60;;;;;;;3.95;100.00;97958.66;5018600;28;20552;-75
2023/01/17 06:37:05;;;;;;;1.90;0.40;;;;;;;3.96;100.00;97968.75;5020327;28;20202;-74
2023/01/17 06:39:30;;;;;;;1.43;0.50;;;;;;;3.95;100.00;97973.84;5019667;28;20623;-75
2023/01/17 06:41:56;;;;;;;0.80;0.30;;;;;;;3.90;100.00;97983.09;5028918;28;20802;-74
2023/01/17 06:44:21;;;;;;;0.63;0.30;;;;;;;3.90;100.00;97993.22;5031675;28;20293;-74
2023/01/17 06:46:46;;;;;;;0.37;0.20;;;;;;;3.87;100.00;97999.13;5014000;28;20667;-74
2023/01/17 06:49:13;;;;;;;0.93;0.43;;;;;;;3.83;100.00;97997.47;5030056;28;20316;-73
2023/01/17 06:51:38;;;;;;;4.33;0.50;;;;;;;3.81;100.00;98013.47;5030020;28;20245;-73
2023/01/17 06:54:04;;;;;;;2.07;0.30;;;;;;;3.78;100.00;98021.09;5032750;28;21490;-71
2023/01/17 06:56:30;;;;;;;1.67;0.50;;;;;;;3.75;100.00;98027.00;5029671;28;20213;-73
2023/01/17 06:58:56;;;;;;;3.13;0.50;;;;;;;3.72;100.00;98043.88;5026081;28;20198;-74
2023/01/17 07:01:22;;;;;;;1.73;0.40;;;;;;;3.69;100.00;98057.31;5030552;28;20889;-74
2023/01/17 07:03:47;;;;;;;1.30;0.47;;;;;;;3.66;100.00;98059.88;5026460;28;20222;-74
2023/01/17 07:06:13;;;;;;;2.43;0.60;;;;;;;3.62;100.00;98064.91;5029761;28;20189;-73
2023/01/17 07:08:38;;;;;;;2.30;0.80;;;;;;;3.62;100.00;98083.47;5025808;28;20198;-74
2023/01/17 07:11:09;;;;;;;2.60;0.50;;;;;;;3.61;100.00;98079.25;5025843;28;20194;-74
2023/01/17 07:13:36;;;;;;;3.63;0.50;;;;;;;3.60;100.00;98082.63;5026939;28;20272;-72
2023/01/17 07:16:03;;;;;;;4.17;0.80;;;;;;;3.60;100.00;98102.00;5024846;28;20606;-73
2023/01/17 07:18:29;;;;;;;2.97;0.63;;;;;;;3.59;100.00;98108.75;5024478;28;20202;-74
2023/01/17 07:20:54;;;;;;;2.00;0.70;;;;;;;3.59;100.00;98116.34;5006696;28;20336;-74
2023/01/17 07:23:21;;;;;;;1.80;0.60;;;;;;;3.56;100.00;98120.53;5023441;28;20225;-73
2023/01/17 07:25:58;;;;;;;3.50;0.60;;;;;;;3.54;100.00;98124.78;5005218;28;20635;-73
2023/01/17 07:28:25;;;;;;;2.70;0.80;;;;;;;3.58;100.00;98144.19;5026225;28;20221;-72
2023/01/17 07:30:51;;;;;;;4.33;0.70;;;;;;;3.57;100.00;98147.53;5030499;28;20190;-74
2023/01/17 07:33:17;;;;;;;3.17;0.57;;;;;;;3.56;100.00;98155.94;4995516;28;20210;-74
2023/01/17 07:35:43;;;;;;;3.77;0.70;;;;;;;3.60;100.00;98168.63;5033615;28;20202;-73
2023/01/17 07:38:13;;;;;;;4.93;0.90;;;;;;;3.61;100.00;98161.88;5027330;28;20206;-73
2023/01/17 07:40:38;;;;;;;2.20;0.60;;;;;;;3.59;100.00;98168.63;5029567;28;20542;-72
2023/01/17 07:43:12;;;;;;;4.97;0.90;;;;;;;3.57;100.00;98173.66;5025536;28;20227;-73
2023/01/17 07:45:49;;;;;;;1.23;0.40;;;;;;;3.57;100.00;98176.19;5025005;28;20815;-73
2023/01/17 07:48:15;;;;;;;4.60;0.97;;;;;;;3.54;100.00;98177.88;5025748;28;20785;-71
2023/01/17 07:50:41;;;;;;;5.17;0.80;;;;;;;3.57;100.00;98183.78;5024745;28;20190;-73
2023/01/17 07:53:07;;;;;;;3.90;0.80;;;;;;;3.59;100.00;98183.81;5026239;28;20557;-73
2023/01/17 07:55:32;;;;;;;5.70;1.23;;;;;;;3.59;100.00;98192.22;5028048;28;20675;-73
2023/01/17 07:57:58;;;;;;;6.23;1.00;;;;;;;3.58;100.00;98197.28;5024323;28;20191;-73
2023/01/17 08:00:26;;;;;;;3.20;0.83;;;;;;;3.62;100.00;98204.03;5023113;28;20195;-72
2023/01/17 08:02:58;;;;;;;2.27;1.00;;;;;;;3.53;100.00;98204.00;5019731;28;20222;-72
2023/01/17 08:05:24;;;;;;;4.93;1.10;;;;;;;3.56;100.00;98215.00;5007696;28;20217;-73
2023/01/17 08:07:50;;;;;;;5.20;0.90;;;;;;;3.61;100.00;98209.94;5002658;28;20195;-74
2023/01/17 08:10:16;;;;;;;6.07;1.17;;;;;;;3.61;100.00;98220.03;5025166;28;20285;-73
2023/01/17 08:12:46;;;;;;;5.13;1.90;;;;;;;3.60;100.00;98220.91;5021066;28;20215;-72
2023/01/17 08:15:11;;;;;;;9.50;1.50;;;;;;;3.60;100.00;98225.94;5027180;28;20194;-74
2023/01/17 08:17:37;;;;;;;8.63;1.90;;;;;;;3.60;100.00;98236.94;5028573;28;20225;-72
2023/01/17 08:20:04;;;;;;;8.10;1.20;;;;;;;3.59;100.00;98239.44;5030476;28;20279;-73
2023/01/17 08:22:30;;;;;;;5.30;1.40;;;;;;;3.60;100.00;98242.00;5033966;28;20231;-72
2023/01/17 08:24:56;;;;;;;5.93;1.43;;;;;;;3.60;100.00;98236.06;5027452;28;20218;-73
2023/01/17 08:27:21;;;;;;;5.20;1.60;;;;;;;3.55;100.00;98252.91;5030213;28;20233;-72
2023/01/17 08:29:48;;;;;;;8.30;1.70;;;;;;;3.47;100.00;98252.88;5030230;28;20202;-72
2023/01/17 08:32:14;;;;;;;3.67;1.30;;;;;;;3.35;100.00;98264.63;5027136;28;20248;-73
2023/01/17 08:34:40;;;;;;;5.30;1.37;;;;;;;3.26;100.00;98278.03;5009018;28;20608;-72
2023/01/17 08:37:06;;;;;;;5.60;1.60;;;;;;;3.30;100.00;98289.00;5022155;28;20198;-73
2023/01/17 08:39:31;;;;;;;6.00;1.30;;;;;;;3.36;100.00;98296.66;5028899;28;20194;-73
2023/01/17 08:41:56;;;;;;;6.00;1.73;;;;;;;3.29;100.00;98287.31;5024166;28;20225;-74
2023/01/17 08:44:22;;;;;;;3.13;1.37;;;;;;;3.30;100.00;98289.00;5026003;28;20221;-73
2023/01/17 08:46:49;;;;;;;2.27;0.90;;;;;;;3.30;100.00;98289.00;5025998;28;20202;-73
2023/01/17 08:49:14;;;;;;;3.43;1.10;;;;;;;3.36;100.00;98300.00;5025105;28;20191;-74
2023/01/17 08:51:40;;;;;;;4.17;1.10;;;;;;;3.35;100.00;98297.50;5023465;28;20226;-71
2023/01/17 08:54:06;;;;;;;2.67;0.97;;;;;;;3.30;100.00;98281.41;5022218;28;20207;-73
2023/01/17 08:56:31;;;;;;;6.70;0.77;;;;;;;3.36;100.00;98292.41;5024672;28;20202;-74
2023/01/17 08:58:57;;;;;;;3.37;0.90;;;;;;;3.46;100.00;98289.13;5002903;28;20209;-73
2023/01/17 09:01:22;;;;;;;4.90;1.17;;;;;;;3.43;100.00;98299.22;5004985;28;20194;-72
2023/01/17 09:03:50;;;;;;;2.87;0.80;;;;;;;3.43;100.00;98319.44;5026746;28;20870;-74
2023/01/17 09:06:16;;;;;;;5.07;0.90;;;;;;;3.35;100.00;98317.72;5025794;28;20206;-73
2023/01/17 09:08:45;;;;;;;4.70;0.97;;;;;;;3.41;100.00;98326.16;5028211;28;20584;-73
2023/01/17 09:11:13;;;;;;;3.50;0.87;;;;;;;3.34;100.00;98328.63;5028466;28;20285;-71
2023/01/17 09:13:39;;;;;;;2.07;0.83;;;;;;;3.22;100.00;98333.63;5011124;28;20595;-73
2023/01/17 09:16:06;;;;;;;3.40;1.00;;;;;;;3.10;100.00;98344.50;5026935;28;20195;-72
2023/01/17 09:18:32;;;;;;;6.00;1.20;;;;;;;3.16;100.00;98347.06;5027730;28;20307;-72
2023/01/17 09:20:58;;;;;;;6.87;1.70;;;;;;;3.23;100.00;98338.69;5028636;28;20562;-73
2023/01/17 09:23:26;;;;;;;4.50;1.57;;;;;;;3.31;100.00;98341.28;5025231;28;20210;-73
2023/01/17 09:25:54;;;;;;;5.33;1.90;;;;;;;3.43;100.00;98339.69;5023218;28;20226;-72
2023/01/17 09:28:20;;;;;;;7.00;2.30;;;;;;;3.47;100.00;98340.53;4996027;28;20220;-72
2023/01/17 09:30:45;;;;;;;7.43;2.77;;;;;;;3.62;100.00;98341.47;5027407;28;20676;-72
2023/01/17 09:33:11;;;;;;;4.97;2.60;;;;;;;3.69;100.00;98340.66;5008187;28;20214;-73
2023/01/17 09:35:36;;;;;;;9.40;2.77;;;;;;;3.82;100.00;98344.13;5024924;28;20214;-71
2023/01/17 09:38:02;;;;;;;6.30;2.40;;;;;;;4.17;100.00;98343.44;5022708;28;20195;-71
2023/01/17 09:40:28;;;;;;;5.33;2.13;;;;;;;4.13;100.00;98358.59;5022483;28;20196;-72
2023/01/17 09:43:02;;;;;;;7.07;2.10;;;;;;;4.38;100.00;98361.22;4991956;28;20218;-71
2023/01/17 09:45:32;;;;;;;5.13;1.67;;;;;;;4.61;100.00;98372.28;5021073;28;20206;-72
2023/01/17 09:48:00;;;;;;;5.10;1.77;;;;;;;4.78;100.00;98370.66;5018911;28;20263;-73
2023/01/17 09:50:30;;;;;;;7.90;1.90;;;;;;;5.37;100.00;98375.75;5006876;28;20229;-73
2023/01/17 09:53:12;;;;;;;4.37;1.30;;;;;;;4.76;100.00;98384.16;5020491;28;20305;-73
2023/01/17 09:55:50;;;;;;;3.80;1.20;;;;;;;5.09;100.00;98382.53;5024930;28;20202;-73
2023/01/17 09:58:24;;;;;;;3.50;1.40;;;;;;;5.60;100.00;98390.13;5013644;28;20243;-73
2023/01/17 10:01:06;;;;;;;5.13;1.87;;;;;;;5.81;100.00;98396.91;5027127;28;20542;-73
2023/01/17 10:03:56;;;;;;;7.93;1.77;;;;;;;5.95;100.00;98400.28;5021386;28;20226;-74
2023/01/17 10:06:30;;;;;;;4.60;2.00;;;;;;;6.11;100.00;98407.84;5020732;28;20220;-72
2023/01/17 10:09:26;;;;;;;8.60;2.00;;;;;;;8.70;99.50;98411.84;5025220;28;20215;-72
2023/01/17 10:12:17;;;;;;;6.10;1.87;;;;;;;7.00;100.00;98408.31;4991174;28;21015;-71
2023/01/17 10:15:02;;;;;;;5.43;1.73;;;;;;;5.86;100.00;98428.22;5024021;28;20205;-72
2023/01/17 10:17:44;;;;;;;7.33;1.80;;;;;;;6.69;100.00;98421.19;5025893;28;20300;-72
2023/01/17 10:20:34;;;;;;;6.53;1.63;;;;;;;10.91;85.31;98391.81;5026991;28;20198;-70
2023/01/17 10:23:09;;;;;;;5.13;1.27;;;;;;;13.55;61.53;98376.09;5005224;28;20733;-70
2023/01/17 10:25:46;;;;;;;6.93;1.80;;;;;;;11.46;66.00;98397.38;5019673;28;20197;-71
2023/01/17 10:28:16;;;;;;;4.40;1.03;;;;;;;13.69;55.03;98380.78;5025431;28;20189;-71
2023/01/17 10:30:49;;;;;;;6.47;1.60;;;;;;;14.26;53.56;98378.81;5024392;28;20952;-70
2023/01/17 10:33:27;;;;;;;4.60;1.10;;;;;;;14.90;50.03;98385.91;5024438;28;20579;-70
2023/01/17 10:36:02;;;;;;;4.60;1.50;;;;;;;14.51;50.09;98387.38;5020572;28;20220;-71
2023/01/17 10:38:32;;;;;;;5.33;1.20;;;;;;;15.38;47.93;98387.47;5021566;28;20197;-71
2023/01/17 10:41:18;;;;;;;4.17;1.37;;;;;;;15.58;48.54;98391.84;5019158;28;20206;-70
2023/01/17 10:44:04;;;;;;;5.43;1.40;;;;;;;13.54;51.49;98394.97;4997215;28;20236;-70
2023/01/17 10:46:37;;;;;;;3.80;1.20;;;;;;;14.69;49.26;98384.16;5022910;28;20190;-71
2023/01/17 10:49:03;;;;;;;2.90;1.17;;;;;;;16.54;45.61;98385.19;5023996;28;20253;-72
2023/01/17 10:51:42;;;;;;;4.57;1.10;;;;;;;13.12;50.43;98408.31;5022003;28;20613;-71
2023/01/17 10:54:23;;;;;;;9.40;1.57;;;;;;;11.17;62.21;98415.16;5025613;28;20190;-72
2023/01/17 10:56:48;;;;;;;4.50;1.33;;;;;;;9.80;68.40;98423.78;5019151;28;20205;-74
2023/01/17 10:59:21;;;;;;;3.57;1.13;;;;;;;9.49;68.30;98438.78;5002474;28;20521;-70
2023/01/17 11:01:46;;;;;;;2.50;1.20;;;;;;;9.25;68.96;98436.59;5026643;28;20218;-72
2023/01/17 11:04:19;;;;;;;4.40;1.07;;;;;;;9.48;68.88;98426.88;5024360;28;20203;-70
2023/01/17 11:06:46;;;;;;;7.07;1.13;;;;;;;9.59;69.78;98436.94;5020893;28;20217;-73
2023/01/17 11:09:12;;;;;;;6.90;1.13;;;;;;;9.66;70.14;98448.72;5018760;28;20219;-71
2023/01/17 11:11:48;;;;;;;3.80;1.07;;;;;;;9.37;68.83;98445.78;5023386;28;20195;-72
2023/01/17 11:14:24;;;;;;;4.47;0.90;;;;;;;9.71;68.22;98445.25;5022780;28;20281;-72
2023/01/17 11:17:05;;;;;;;4.83;1.53;;;;;;;12.11;62.72;98436.78;5001496;28;20306;-72
2023/01/17 11:19:35;;;;;;;5.13;1.60;;;;;;;15.36;47.77;98417.66;5023757;28;20247;-71
2023/01/17 11:22:03;;;;;;;4.07;1.23;;;;;;;14.99;44.76;98419.06;5021277;28;20223;-70
2023/01/17 11:24:47;;;;;;;3.90;1.20;;;;;;;17.76;41.32;98413.94;5024331;28;20683;-71
2023/01/17 11:27:34;;;;;;;4.37;1.40;;;;;;;16.63;40.04;98419.19;5016377;28;20199;-73
2023/01/17 11:30:06;;;;;;;4.90;1.20;;;;;;;16.71;40.28;98418.88;5024033;28;20203;-69
2023/01/17 11:32:32;;;;;;;5.20;1.40;;;;;;;11.16;51.18;98463.84;5029804;28;20244;-72
2023/01/17 11:35:15;;;;;;;4.90;1.70;;;;;;;14.47;47.37;98433.00;5026580;28;20190;-72
2023/01/17 11:38:01;;;;;;;4.27;1.33;;;;;;;15.20;42.85;98431.97;5000902;28;20862;-74
2023/01/17 11:40:37;;;;;;;4.77;1.27;;;;;;;17.43;40.91;98420.72;5017560;28;20229;-72
2023/01/17 11:43:11;;;;;;;4.57;1.07;;;;;;;18.73;37.85;98413.28;5026505;28;20222;-73
2023/01/17 11:45:40;;;;;;;6.00;1.40;;;;;;;18.12;37.39;98412.97;5028581;28;20205;-73
2023/01/17 11:48:12;;;;;;;4.07;1.80;;;;;;;16.82;38.87;98427.00;5009333;28;20783;-73
2023/01/17 11:50:42;;;;;;;4.30;1.20;;;;;;;16.42;40.21;98422.72;5018706;28;20194;-74
2023/01/17 11:53:16;;;;;;;4.30;1.20;;;;;;;16.08;39.55;98429.34;5027044;28;20212;-73
2023/01/17 11:56:31;;;;;;;3.10;1.20;;;;;;;16.74;39.00;98432.50;5026945;28;20202;-73
2023/01/17 11:59:17;;;;;;;3.67;1.17;;;;;;;16.18;39.93;98434.06;5017003;28;20219;-72
2023/01/17 12:02:01;;;;;;;3.83;1.20;;;;;;;16.67;37.43;98443.19;5025255;28;20356;-71
2023/01/17 12:04:34;;;;;;;3.60;1.20;;;;;;;16.21;38.60;98441.66;5022458;28;20261;-70
2023/01/17 12:07:18;;;;;;;5.87;1.37;;;;;;;17.25;38.29;98442.22;5017767;28;20218;-70
2023/01/17 12:09:53;;;;;;;2.93;1.07;;;;;;;17.53;37.33;98458.19;5029210;28;20205;-71
2023/01/17 12:15:36;;;;;;;3.07;1.17;;;;;;;17.31;39.88;98457.50;5025300;28;20191;-70
2023/01/17 12:18:19;;;;;;;4.20;1.10;;;;;;;15.94;40.43;98465.22;5007665;28;20272;-73
2023/01/17 12:20:45;;;;;;;2.37;1.10;;;;;;;15.86;40.46;98465.53;5025860;28;20206;-73
2023/01/17 12:23:43;;;;;;;4.10;1.50;;;;;;;13.82;45.35;98482.38;5016970;28;20225;-72
2023/01/17 12:26:30;;;;;;;3.93;1.10;;;;;;;14.52;44.06;98479.19;5020931;28;20210;-72
2023/01/17 12:29:10;;;;;;;3.50;1.13;;;;;;;12.99;46.88;98495.19;5026656;28;20206;-72
2023/01/17 12:31:53;;;;;;;3.60;1.30;;;;;;;11.07;49.32;98500.72;5024501;28;20217;-72
2023/01/17 12:34:40;;;;;;;5.23;1.40;;;;;;;10.50;55.57;98501.03;5008331;28;20186;-72
2023/01/17 12:37:19;;;;;;;6.00;1.20;;;;;;;12.98;50.10;98495.25;5029167;28;20651;-73
2023/01/17 12:39:57;;;;;;;5.70;1.13;;;;;;;13.23;48.16;98491.06;5027285;28;20657;-73
2023/01/17 12:42:27;;;;;;;3.47;1.10;;;;;;;10.20;53.89;98504.97;5028604;28;20214;-72
2023/01/17 12:45:04;;;;;;;4.57;1.00;;;;;;;9.48;58.30;98526.50;5025845;28;20219;-74
2023/01/17 12:47:36;;;;;;;5.70;1.10;;;;;;;9.75;57.44;98517.59;5026563;28;20210;-72
2023/01/17 12:50:24;;;;;;;3.67;0.93;;;;;;;9.37;58.24;98522.41;5029403;28;20190;-74
2023/01/17 12:53:01;;;;;;;4.50;1.00;;;;;;;7.52;64.04;98534.41;5023917;28;20229;-74
2023/01/17 12:55:46;;;;;;;6.50;1.27;;;;;;;6.90;67.51;98527.91;5027414;28;20232;-74
2023/01/17 12:58:18;;;;;;;4.53;0.83;;;;;;;6.82;69.38;98544.91;5024301;28;20202;-74
2023/01/17 13:00:47;;;;;;;1.43;0.70;;;;;;;6.74;71.07;98533.91;5026328;28;20725;-74
2023/01/17 13:03:39;;;;;;;2.47;1.13;;;;;;;6.59;72.28;98531.41;5025119;28;20210;-74
2023/01/17 13:06:15;;;;;;;4.43;1.00;;;;;;;6.38;72.39;98542.47;5021420;28;20203;-74
2023/01/17 13:08:52;;;;;;;2.67;0.90;;;;;;;6.50;71.79;98544.13;5020829;28;20210;-73
2023/01/17 13:11:26;;;;;;;2.90;1.07;;;;;;;7.27;68.17;98548.09;5009915;28;20224;-73
2023/01/17 13:13:54;;;;;;;4.53;0.90;;;;;;;8.17;64.89;98532.22;5023777;28;20205;-74